createdAt,value
2017-05-01T00:00:31.407Z,33.4
2017-05-01T00:01:31.440Z,33.59
2017-05-01T00:02:31.457Z,33.69
2017-05-01T00:03:31.791Z,33.59
2017-05-01T00:04:31.515Z,33.69
2017-05-01T00:05:31.545Z,33.5
2017-05-01T00:06:31.880Z,33.5
2017-05-01T00:07:31.595Z,33.4
2017-05-01T00:08:31.623Z,33.4
2017-05-01T00:09:31.859Z,33.59
2017-05-01T00:10:31.675Z,33.69
2017-05-01T00:11:31.705Z,33.78
2017-05-01T00:12:31.734Z,33.78
2017-05-01T00:13:31.770Z,33.69
2017-05-01T00:14:31.828Z,33.98
2017-05-01T00:15:31.806Z,33.88
2017-05-01T00:16:31.836Z,33.88
2017-05-01T00:17:31.866Z,33.98
2017-05-01T00:18:32.195Z,33.88
2017-05-01T00:19:31.914Z,33.86
2017-05-01T00:20:32.264Z,33.69
2017-05-01T00:21:32.269Z,33.78
2017-05-01T00:22:31.995Z,33.88
2017-05-01T00:23:32.026Z,33.98
2017-05-01T00:24:32.350Z,34.06
2017-05-01T00:25:32.075Z,33.98
2017-05-01T00:26:32.101Z,33.98
2017-05-01T00:27:32.132Z,34.17
2017-05-01T00:28:32.165Z,34.06
2017-05-01T00:29:32.199Z,33.86
2017-05-01T00:30:32.211Z,34.15
2017-05-01T00:31:32.339Z,34.06
2017-05-01T00:32:32.570Z,34.25
2017-05-01T00:33:32.597Z,34.34
2017-05-01T00:34:32.621Z,34.25
2017-05-01T00:35:32.351Z,34.15
2017-05-01T00:36:32.690Z,33.86
2017-05-01T00:37:32.703Z,34.15
2017-05-01T00:38:32.425Z,34.15
2017-05-01T00:39:32.752Z,34.34
2017-05-01T00:40:32.780Z,34.34
2017-05-01T00:41:32.510Z,34.44
2017-05-01T00:42:32.533Z,34.53
2017-05-01T00:43:32.570Z,34.63
2017-05-01T00:44:32.605Z,34.53
2017-05-01T00:45:32.613Z,34.44
2017-05-01T00:46:32.641Z,34.63
2017-05-01T00:47:32.962Z,34.34
2017-05-01T00:48:32.911Z,34.63
2017-05-01T00:49:32.767Z,34.53
2017-05-01T00:50:32.746Z,34.73
2017-05-01T00:51:32.770Z,34.73
2017-05-01T00:52:33.101Z,34.53
2017-05-01T00:53:32.829Z,34.81
2017-05-01T00:54:32.854Z,34.81
2017-05-01T00:55:32.877Z,34.61
2017-05-01T00:56:32.903Z,35
2017-05-01T00:57:32.931Z,34.61
2017-05-01T00:58:32.959Z,35
2017-05-01T00:59:33.287Z,34.71
2017-05-01T01:00:33.310Z,34.9
2017-05-01T01:01:33.033Z,35
2017-05-01T01:02:33.058Z,34.9
2017-05-01T01:03:33.087Z,34.9
2017-05-01T01:04:34.366Z,34.9
2017-05-01T01:05:33.140Z,34.71
2017-05-01T01:06:33.171Z,35
2017-05-01T01:07:33.251Z,34.81
2017-05-01T01:08:33.627Z,34.9
2017-05-01T01:09:33.248Z,34.81
2017-05-01T01:10:33.274Z,34.9
2017-05-01T01:11:33.300Z,34.9
2017-05-01T01:12:33.333Z,34.81
2017-05-01T01:13:33.655Z,34.9
2017-05-01T01:14:33.691Z,35
2017-05-01T01:15:33.419Z,34.81
2017-05-01T01:16:33.432Z,34.81
2017-05-01T01:17:33.460Z,35
2017-05-01T01:18:33.486Z,34.9
2017-05-01T01:19:33.510Z,35.1
2017-05-01T01:20:33.538Z,35.1
2017-05-01T01:21:33.563Z,34.81
2017-05-01T01:22:33.586Z,35
2017-05-01T01:23:34.180Z,35
2017-05-01T01:24:33.642Z,34.71
2017-05-01T01:25:33.666Z,35.1
2017-05-01T01:26:33.995Z,35.1
2017-05-01T01:27:33.720Z,35.1
2017-05-01T01:28:34.063Z,34.81
2017-05-01T01:29:33.776Z,34.9
2017-05-01T01:30:34.166Z,35.19
2017-05-01T01:31:33.825Z,34.9
2017-05-01T01:32:33.855Z,35
2017-05-01T01:33:34.184Z,35.48
2017-05-01T01:34:33.905Z,35.19
2017-05-01T01:35:33.937Z,35.19
2017-05-01T01:36:33.958Z,35.1
2017-05-01T01:37:34.388Z,35.1
2017-05-01T01:38:34.313Z,35.38
2017-05-01T01:39:34.035Z,35.48
2017-05-01T01:40:34.066Z,35.28
2017-05-01T01:41:34.092Z,35.38
2017-05-01T01:42:34.167Z,35.38
2017-05-01T01:43:34.446Z,35.27
2017-05-01T01:44:34.468Z,35.57
2017-05-01T01:45:34.196Z,35.36
2017-05-01T01:46:34.221Z,35.55
2017-05-01T01:47:34.244Z,35.38
2017-05-01T01:48:34.580Z,35.46
2017-05-01T01:49:34.296Z,35.75
2017-05-01T01:50:34.323Z,35.48
2017-05-01T01:51:34.564Z,35.36
2017-05-01T01:52:34.380Z,35.38
2017-05-01T01:53:34.705Z,35.28
2017-05-01T01:54:34.450Z,35.84
2017-05-01T01:55:34.462Z,35.17
2017-05-01T01:56:34.481Z,35.55
2017-05-01T01:57:34.556Z,35.38
2017-05-01T01:58:34.533Z,35.46
2017-05-01T01:59:34.597Z,35.75
2017-05-01T02:00:34.891Z,35.75
2017-05-01T02:01:34.635Z,35.46
2017-05-01T02:02:34.640Z,35.75
2017-05-01T02:03:34.966Z,35.48
2017-05-01T02:04:34.989Z,35.46
2017-05-01T02:05:34.716Z,35.46
2017-05-01T02:06:34.743Z,35.65
2017-05-01T02:07:34.767Z,35.55
2017-05-01T02:08:35.100Z,35.27
2017-05-01T02:09:34.826Z,35.38
2017-05-01T02:10:35.147Z,35.65
2017-05-01T02:11:34.952Z,35.46
2017-05-01T02:12:35.255Z,35.36
2017-05-01T02:13:34.926Z,35.65
2017-05-01T02:14:35.248Z,35.46
2017-05-01T02:15:34.977Z,35.75
2017-05-01T02:16:35.010Z,35.75
2017-05-01T02:17:35.073Z,35.94
2017-05-01T02:18:35.056Z,36.04
2017-05-01T02:19:35.388Z,35.55
2017-05-01T02:20:35.408Z,35.27
2017-05-01T02:21:35.132Z,35.17
2017-05-01T02:22:35.158Z,35.17
2017-05-01T02:23:35.191Z,35.94
2017-05-01T02:24:35.210Z,35.75
2017-05-01T02:25:35.239Z,35.84
2017-05-01T02:26:35.263Z,35.84
2017-05-01T02:27:35.345Z,35.75
2017-05-01T02:28:35.615Z,35.84
2017-05-01T02:29:35.641Z,35.84
2017-05-01T02:30:35.368Z,35.75
2017-05-01T02:31:35.398Z,35.84
2017-05-01T02:32:35.425Z,35.84
2017-05-01T02:33:35.448Z,35.94
2017-05-01T02:34:35.474Z,35.36
2017-05-01T02:35:35.822Z,36.13
2017-05-01T02:36:35.528Z,36.13
2017-05-01T02:37:35.546Z,35.94
2017-05-01T02:38:35.576Z,36.04
2017-05-01T02:39:35.602Z,35.65
2017-05-01T02:40:35.627Z,35.75
2017-05-01T02:41:35.730Z,35.65
2017-05-01T02:42:35.676Z,35.94
2017-05-01T02:43:35.706Z,35.84
2017-05-01T02:44:36.029Z,35.84
2017-05-01T02:45:35.856Z,35.84
2017-05-01T02:46:35.783Z,35.94
2017-05-01T02:47:35.811Z,36.04
2017-05-01T02:48:35.834Z,35.92
2017-05-01T02:49:35.867Z,35.92
2017-05-01T02:50:36.089Z,35.92
2017-05-01T02:51:35.918Z,35.92
2017-05-01T02:52:35.941Z,35.92
2017-05-01T02:53:36.261Z,35.92
2017-05-01T02:54:35.994Z,35.83
2017-05-01T02:55:36.018Z,36.02
2017-05-01T02:56:36.043Z,36.3
2017-05-01T02:57:36.371Z,36.21
2017-05-01T02:58:36.403Z,35.92
2017-05-01T02:59:36.419Z,36.11
2017-05-01T03:00:36.144Z,36.49
2017-05-01T03:01:36.170Z,36.4
2017-05-01T03:02:36.203Z,36.11
2017-05-01T03:03:36.576Z,36.21
2017-05-01T03:04:36.252Z,36.21
2017-05-01T03:05:36.580Z,36.49
2017-05-01T03:06:36.308Z,36.11
2017-05-01T03:07:36.629Z,36.49
2017-05-01T03:08:36.351Z,36.3
2017-05-01T03:09:36.375Z,36.11
2017-05-01T03:10:36.405Z,35.92
2017-05-01T03:11:36.735Z,35.92
2017-05-01T03:12:36.458Z,35.92
2017-05-01T03:13:36.481Z,35.83
2017-05-01T03:14:36.510Z,35.92
2017-05-01T03:15:36.541Z,35.83
2017-05-01T03:16:36.569Z,35.83
2017-05-01T03:17:36.586Z,36.11
2017-05-01T03:18:36.662Z,36.02
2017-05-01T03:19:36.935Z,36.11
2017-05-01T03:20:36.966Z,36.21
2017-05-01T03:21:36.686Z,36.49
2017-05-01T03:22:36.715Z,36.4
2017-05-01T03:23:37.042Z,36.69
2017-05-01T03:24:36.764Z,36.79
2017-05-01T03:25:36.788Z,36.79
2017-05-01T03:26:37.114Z,36.11
2017-05-01T03:27:36.839Z,36.3
2017-05-01T03:28:36.873Z,36.88
2017-05-01T03:29:36.892Z,36.21
2017-05-01T03:30:37.222Z,36.88
2017-05-01T03:31:36.944Z,35.92
2017-05-01T03:32:37.268Z,36.79
2017-05-01T03:33:36.993Z,36.49
2017-05-01T03:34:37.076Z,36.88
2017-05-01T03:35:37.046Z,36.98
2017-05-01T03:36:37.080Z,36.3
2017-05-01T03:37:37.398Z,36.3
2017-05-01T03:38:37.124Z,36.69
2017-05-01T03:39:37.158Z,36.69
2017-05-01T03:40:37.474Z,36.59
2017-05-01T03:41:37.200Z,36.4
2017-05-01T03:42:37.232Z,36.49
2017-05-01T03:43:37.551Z,36.98
2017-05-01T03:44:37.781Z,36.49
2017-05-01T03:45:37.303Z,36.49
2017-05-01T03:46:37.649Z,36.79
2017-05-01T03:47:37.356Z,36.88
2017-05-01T03:48:37.675Z,36.79
2017-05-01T03:49:37.705Z,37.16
2017-05-01T03:50:37.734Z,36.49
2017-05-01T03:51:37.460Z,36.69
2017-05-01T03:52:37.838Z,36.59
2017-05-01T03:53:37.504Z,36.49
2017-05-01T03:54:37.533Z,37.07
2017-05-01T03:55:37.560Z,37.07
2017-05-01T03:56:37.887Z,36.98
2017-05-01T03:57:37.605Z,36.98
2017-05-01T03:58:37.951Z,36.96
2017-05-01T03:59:37.655Z,36.98
2017-05-01T04:00:37.715Z,36.96
2017-05-01T04:01:37.714Z,36.79
2017-05-01T04:02:37.733Z,36.77
2017-05-01T04:03:37.771Z,36.57
2017-05-01T04:04:38.087Z,36.86
2017-05-01T04:05:37.807Z,37.07
2017-05-01T04:06:37.839Z,36.77
2017-05-01T04:07:38.211Z,36.98
2017-05-01T04:08:37.886Z,36.69
2017-05-01T04:09:37.922Z,36.98
2017-05-01T04:10:37.936Z,36.59
2017-05-01T04:11:37.975Z,36.96
2017-05-01T04:12:38.291Z,36.96
2017-05-01T04:13:38.018Z,36.69
2017-05-01T04:14:38.065Z,36.69
2017-05-01T04:15:38.361Z,37.07
2017-05-01T04:16:38.094Z,36.67
2017-05-01T04:17:38.418Z,36.88
2017-05-01T04:18:38.164Z,37.05
2017-05-01T04:19:38.468Z,37.05
2017-05-01T04:20:38.189Z,36.86
2017-05-01T04:21:38.217Z,37.24
2017-05-01T04:22:38.251Z,36.86
2017-05-01T04:23:38.266Z,37.24
2017-05-01T04:24:38.293Z,37.24
2017-05-01T04:25:38.669Z,37.34
2017-05-01T04:26:38.344Z,37.34
2017-05-01T04:27:38.675Z,37.34
2017-05-01T04:28:38.708Z,37.34
2017-05-01T04:29:38.422Z,37.24
2017-05-01T04:30:38.442Z,37.63
2017-05-01T04:31:38.468Z,37.63
2017-05-01T04:32:38.803Z,37.53
2017-05-01T04:33:38.522Z,37.34
2017-05-01T04:34:38.557Z,37.53
2017-05-01T04:35:38.574Z,37.72
2017-05-01T04:36:38.899Z,37.24
2017-05-01T04:37:38.924Z,37.63
2017-05-01T04:38:38.654Z,37.15
2017-05-01T04:39:38.673Z,37.43
2017-05-01T04:40:39.048Z,37.43
2017-05-01T04:41:38.730Z,37.24
2017-05-01T04:42:39.058Z,37.05
2017-05-01T04:43:39.076Z,37.15
2017-05-01T04:44:38.797Z,37.34
2017-05-01T04:45:38.828Z,37.24
2017-05-01T04:46:38.855Z,37.24
2017-05-01T04:47:38.876Z,37.43
2017-05-01T04:48:38.908Z,37.34
2017-05-01T04:49:38.945Z,37.34
2017-05-01T04:50:38.949Z,37.53
2017-05-01T04:51:38.977Z,37.72
2017-05-01T04:52:39.303Z,37.53
2017-05-01T04:53:39.031Z,37.34
2017-05-01T04:54:39.358Z,37.34
2017-05-01T04:55:39.079Z,37.34
2017-05-01T04:56:39.101Z,37.34
2017-05-01T04:57:39.429Z,37.34
2017-05-01T04:58:39.214Z,37.34
2017-05-01T04:59:39.473Z,37.82
2017-05-01T05:00:39.209Z,37.53
2017-05-01T05:01:39.236Z,38.2
2017-05-01T05:02:39.553Z,37.43
2017-05-01T05:03:39.276Z,37.34
2017-05-01T05:04:39.308Z,37.34
2017-05-01T05:05:39.333Z,37.82
2017-05-01T05:06:39.360Z,37.24
2017-05-01T05:07:39.382Z,37.53
2017-05-01T05:08:39.411Z,36.96
2017-05-01T05:09:39.735Z,37.24
2017-05-01T05:10:39.457Z,37.24
2017-05-01T05:11:39.779Z,37.34
2017-05-01T05:12:39.510Z,37.53
2017-05-01T05:13:39.907Z,37.34
2017-05-01T05:14:39.864Z,37.34
2017-05-01T05:15:39.585Z,37.53
2017-05-01T05:16:39.613Z,37.92
2017-05-01T05:17:39.929Z,37.53
2017-05-01T05:18:39.654Z,37.63
2017-05-01T05:19:39.986Z,37.53
2017-05-01T05:20:39.707Z,37.63
2017-05-01T05:21:39.732Z,37.63
2017-05-01T05:22:39.757Z,37.53
2017-05-01T05:23:40.093Z,37.53
2017-05-01T05:24:39.806Z,37.24
2017-05-01T05:25:39.831Z,37.05
2017-05-01T05:26:39.855Z,37.24
2017-05-01T05:27:39.881Z,36.86
2017-05-01T05:28:40.261Z,37.07
2017-05-01T05:29:40.235Z,37.05
2017-05-01T05:30:39.957Z,36.96
2017-05-01T05:31:40.282Z,37.16
2017-05-01T05:32:40.308Z,37.26
2017-05-01T05:33:40.340Z,37.16
2017-05-01T05:34:40.063Z,36.79
2017-05-01T05:35:40.388Z,36.88
2017-05-01T05:36:40.114Z,37.07
2017-05-01T05:37:40.143Z,37.16
2017-05-01T05:38:40.461Z,36.21
2017-05-01T05:39:40.183Z,36.69
2017-05-01T05:40:40.207Z,36.49
2017-05-01T05:41:40.233Z,36.4
2017-05-01T05:42:40.561Z,36.59
2017-05-01T05:43:40.593Z,36.59
2017-05-01T05:44:40.625Z,36.3
2017-05-01T05:45:40.433Z,36.21
2017-05-01T05:46:40.360Z,36.02
2017-05-01T05:47:40.689Z,36.4
2017-05-01T05:48:40.714Z,35.92
2017-05-01T05:49:40.438Z,35.92
2017-05-01T05:50:40.775Z,35.94
2017-05-01T05:51:40.488Z,35.36
2017-05-01T05:52:40.516Z,35.75
2017-05-01T05:53:40.536Z,35.94
2017-05-01T05:54:40.868Z,35.84
2017-05-01T05:55:40.889Z,35.46
2017-05-01T05:56:40.919Z,35.27
2017-05-01T05:57:40.639Z,35.46
2017-05-01T05:58:40.967Z,35.55
2017-05-01T05:59:40.690Z,35.28
2017-05-01T06:00:40.724Z,35.08
2017-05-01T06:01:41.095Z,35.19
2017-05-01T06:02:40.772Z,35.28
2017-05-01T06:03:40.793Z,35
2017-05-01T06:04:40.832Z,34.9
2017-05-01T06:05:41.152Z,34.71
2017-05-01T06:06:41.170Z,34.81
2017-05-01T06:07:41.200Z,34.9
2017-05-01T06:08:40.921Z,34.61
2017-05-01T06:09:41.249Z,34.52
2017-05-01T06:10:40.978Z,34.71
2017-05-01T06:11:40.999Z,34.33
2017-05-01T06:12:41.028Z,34.61
2017-05-01T06:13:41.051Z,34.52
2017-05-01T06:14:41.083Z,34.33
2017-05-01T06:15:41.111Z,34.14
2017-05-01T06:16:41.125Z,34.14
2017-05-01T06:17:41.156Z,34.25
2017-05-01T06:18:41.236Z,34.06
2017-05-01T06:19:41.206Z,34.15
2017-05-01T06:20:41.231Z,34.06
2017-05-01T06:21:41.569Z,33.86
2017-05-01T06:22:41.583Z,34.06
2017-05-01T06:23:41.610Z,33.96
2017-05-01T06:24:41.338Z,33.96
2017-05-01T06:25:41.361Z,34.06
2017-05-01T06:26:41.386Z,33.77
2017-05-01T06:27:41.727Z,33.77
2017-05-01T06:28:41.745Z,33.96
2017-05-01T06:29:41.465Z,33.67
2017-05-01T06:30:41.791Z,33.67
2017-05-01T06:31:41.824Z,33.77
2017-05-01T06:32:41.844Z,33.67
2017-05-01T06:33:41.569Z,33.67
2017-05-01T06:34:41.950Z,33.39
2017-05-01T06:35:41.925Z,33.58
2017-05-01T06:36:41.956Z,33.67
2017-05-01T06:37:41.979Z,33.48
2017-05-01T06:38:41.699Z,33.58
2017-05-01T06:39:42.031Z,33.58
2017-05-01T06:40:41.763Z,33.69
2017-05-01T06:41:41.778Z,33.48
2017-05-01T06:42:42.109Z,33.4
2017-05-01T06:43:41.830Z,33.4
2017-05-01T06:44:42.166Z,33.5
2017-05-01T06:45:42.190Z,33.59
2017-05-01T06:46:41.909Z,33.31
2017-05-01T06:47:42.240Z,33.31
2017-05-01T06:48:41.966Z,33.5
2017-05-01T06:49:41.984Z,33.21
2017-05-01T06:50:42.013Z,33.31
2017-05-01T06:51:42.041Z,33.21
2017-05-01T06:52:42.063Z,33.21
2017-05-01T06:53:42.093Z,33.11
2017-05-01T06:54:42.120Z,33.4
2017-05-01T06:55:42.151Z,33.11
2017-05-01T06:56:42.476Z,33.21
2017-05-01T06:57:42.501Z,33.31
2017-05-01T06:58:42.223Z,33.11
2017-05-01T06:59:42.554Z,33.11
2017-05-01T07:00:42.276Z,33.11
2017-05-01T07:01:42.304Z,33.01
2017-05-01T07:02:42.332Z,33.21
2017-05-01T07:03:42.675Z,33.31
2017-05-01T07:04:42.406Z,33.31
2017-05-01T07:05:42.407Z,33.21
2017-05-01T07:06:42.738Z,33.23
2017-05-01T07:07:42.759Z,33.23
2017-05-01T07:08:42.493Z,33.13
2017-05-01T07:09:42.814Z,33.13
2017-05-01T07:10:42.539Z,32.92
2017-05-01T07:11:42.589Z,32.93
2017-05-01T07:12:42.596Z,33.23
2017-05-01T07:13:42.617Z,33.32
2017-05-01T07:14:42.645Z,33.32
2017-05-01T07:15:42.674Z,33.11
2017-05-01T07:16:43.032Z,33.13
2017-05-01T07:17:43.029Z,33.23
2017-05-01T07:18:42.748Z,33.13
2017-05-01T07:19:42.781Z,33.03
2017-05-01T07:20:43.110Z,33.03
2017-05-01T07:21:42.830Z,32.93
2017-05-01T07:22:43.158Z,32.93
2017-05-01T07:23:43.181Z,32.84
2017-05-01T07:24:43.268Z,33.03
2017-05-01T07:25:42.935Z,32.93
2017-05-01T07:26:42.975Z,32.84
2017-05-01T07:27:42.992Z,32.93
2017-05-01T07:28:43.021Z,32.75
2017-05-01T07:29:43.343Z,32.93
2017-05-01T07:30:43.069Z,32.75
2017-05-01T07:31:43.102Z,32.65
2017-05-01T07:32:43.126Z,32.46
2017-05-01T07:33:43.453Z,32.65
2017-05-01T07:34:43.189Z,32.65
2017-05-01T07:35:43.503Z,32.57
2017-05-01T07:36:43.534Z,32.47
2017-05-01T07:37:43.558Z,32.47
2017-05-01T07:38:43.584Z,32.47
2017-05-01T07:39:43.324Z,32.57
2017-05-01T07:40:43.696Z,32.57
2017-05-01T07:41:43.368Z,32.47
2017-05-01T07:42:43.394Z,32.47
2017-05-01T07:43:43.429Z,32.67
2017-05-01T07:44:43.446Z,32.57
2017-05-01T07:45:43.470Z,32.38
2017-05-01T07:46:43.808Z,32.57
2017-05-01T07:47:43.530Z,32.38
2017-05-01T07:48:43.552Z,32.28
2017-05-01T07:49:43.577Z,32.09
2017-05-01T07:50:43.910Z,32.28
2017-05-01T07:51:43.629Z,31.99
2017-05-01T07:52:43.656Z,32.28
2017-05-01T07:53:43.693Z,31.9
2017-05-01T07:54:43.710Z,31.99
2017-05-01T07:55:43.790Z,31.9
2017-05-01T07:56:43.764Z,31.99
2017-05-01T07:57:43.791Z,31.8
2017-05-01T07:58:43.820Z,31.99
2017-05-01T07:59:43.853Z,31.92
2017-05-01T08:00:44.177Z,32.01
2017-05-01T08:01:43.902Z,32.01
2017-05-01T08:02:43.924Z,31.92
2017-05-01T08:03:43.958Z,31.62
2017-05-01T08:04:44.287Z,32.1
2017-05-01T08:05:44.006Z,32.3
2017-05-01T08:06:44.032Z,32.39
2017-05-01T08:07:44.064Z,32.3
2017-05-01T08:08:44.390Z,31.43
2017-05-01T08:09:44.129Z,31.34
2017-05-01T08:10:44.462Z,31.34
2017-05-01T08:11:44.172Z,31.24
2017-05-01T08:12:44.199Z,31.24
2017-05-01T08:13:44.522Z,31.15
2017-05-01T08:14:44.251Z,31.24
2017-05-01T08:15:44.347Z,31.82
2017-05-01T08:16:44.602Z,31.72
2017-05-01T08:17:44.327Z,30.76
2017-05-01T08:18:44.687Z,30.95
2017-05-01T08:19:44.384Z,31.43
2017-05-01T08:20:44.412Z,30.95
2017-05-01T08:21:44.734Z,31.34
2017-05-01T08:22:44.465Z,31.26
2017-05-01T08:23:44.800Z,31.06
2017-05-01T08:24:44.516Z,31.34
2017-05-01T08:25:44.544Z,31.16
2017-05-01T08:26:44.881Z,31.15
2017-05-01T08:27:44.602Z,31.26
2017-05-01T08:28:44.628Z,31.16
2017-05-01T08:29:44.657Z,31.06
2017-05-01T08:30:44.730Z,31.06
2017-05-01T08:31:45.009Z,30.77
2017-05-01T08:32:45.031Z,30.77
2017-05-01T08:33:45.062Z,31.35
2017-05-01T08:34:45.088Z,31.16
2017-05-01T08:35:44.815Z,31.06
2017-05-01T08:36:44.841Z,30.97
2017-05-01T08:37:44.874Z,31.06
2017-05-01T08:38:44.903Z,30.87
2017-05-01T08:39:45.222Z,31.06
2017-05-01T08:40:44.949Z,31.06
2017-05-01T08:41:44.977Z,31.16
2017-05-01T08:42:45.001Z,31.06
2017-05-01T08:43:45.332Z,30.87
2017-05-01T08:44:45.362Z,31.06
2017-05-01T08:45:45.083Z,31.26
2017-05-01T08:46:45.110Z,31.06
2017-05-01T08:47:45.492Z,31.16
2017-05-01T08:48:45.467Z,30.87
2017-05-01T08:49:45.492Z,31.16
2017-05-01T08:50:45.218Z,30.77
2017-05-01T08:51:45.245Z,30.87
2017-05-01T08:52:45.626Z,30.98
2017-05-01T08:53:45.613Z,31.08
2017-05-01T08:54:45.327Z,30.98
2017-05-01T08:55:45.355Z,31.27
2017-05-01T08:56:45.460Z,30.88
2017-05-01T08:57:45.407Z,31.18
2017-05-01T08:58:45.739Z,30.98
2017-05-01T08:59:45.491Z,30.79
2017-05-01T09:00:45.488Z,30.98
2017-05-01T09:01:45.518Z,31.08
2017-05-01T09:02:45.957Z,31.08
2017-05-01T09:03:45.871Z,30.98
2017-05-01T09:04:45.599Z,31.08
2017-05-01T09:05:45.678Z,31.08
2017-05-01T09:06:45.653Z,31.08
2017-05-01T09:07:45.983Z,31.27
2017-05-01T09:08:45.710Z,31.27
2017-05-01T09:09:45.741Z,30.88
2017-05-01T09:10:45.769Z,30.88
2017-05-01T09:11:46.092Z,31.18
2017-05-01T09:12:45.818Z,30.88
2017-05-01T09:13:46.149Z,31.37
2017-05-01T09:14:45.877Z,31.57
2017-05-01T09:15:45.904Z,31.38
2017-05-01T09:16:45.930Z,31
2017-05-01T09:17:45.967Z,31.29
2017-05-01T09:18:46.284Z,30.71
2017-05-01T09:19:46.016Z,30.71
2017-05-01T09:20:46.050Z,31.19
2017-05-01T09:21:46.065Z,31.29
2017-05-01T09:22:46.096Z,30.8
2017-05-01T09:23:46.424Z,31
2017-05-01T09:24:46.453Z,31
2017-05-01T09:25:46.176Z,31
2017-05-01T09:26:46.229Z,30.71
2017-05-01T09:27:46.233Z,30.22
2017-05-01T09:28:46.269Z,31
2017-05-01T09:29:46.287Z,30.71
2017-05-01T09:30:46.315Z,30.32
2017-05-01T09:31:46.446Z,30.91
2017-05-01T09:32:46.681Z,31.11
2017-05-01T09:33:46.711Z,30.82
2017-05-01T09:34:46.728Z,30.15
2017-05-01T09:35:46.615Z,30.43
2017-05-01T09:36:46.784Z,30.34
2017-05-01T09:37:46.811Z,30.34
2017-05-01T09:38:46.838Z,30.34
2017-05-01T09:39:46.867Z,30.24
2017-05-01T09:40:46.641Z,29.97
2017-05-01T09:41:46.629Z,29.49
2017-05-01T09:42:46.648Z,29
2017-05-01T09:43:46.672Z,28.83
2017-05-01T09:44:46.705Z,28.83
2017-05-01T09:45:46.732Z,28.73
2017-05-01T09:46:46.770Z,28.34
2017-05-01T09:47:46.790Z,28.45
2017-05-01T09:48:47.124Z,28.07
2017-05-01T09:49:46.848Z,28.26
2017-05-01T09:50:46.883Z,28.26
2017-05-01T09:51:47.212Z,27.87
2017-05-01T09:52:46.929Z,27.02
2017-05-01T09:53:46.960Z,25.49
2017-05-01T09:54:46.989Z,24.08
2017-05-01T09:55:47.063Z,22.37
2017-05-01T09:56:47.042Z,21.91
2017-05-01T09:57:47.074Z,21.91
2017-05-01T09:58:47.099Z,22.77
2017-05-01T09:59:47.433Z,22.08
2017-05-01T10:00:47.163Z,21.71
2017-05-01T10:01:47.225Z,20.37
2017-05-01T10:02:47.220Z,19.51
2017-05-01T10:03:47.248Z,19.23
2017-05-01T10:04:47.287Z,19.13
2017-05-01T10:05:47.379Z,19.62
2017-05-01T10:06:47.339Z,20.09
2017-05-01T10:07:47.376Z,20.76
2017-05-01T10:08:47.400Z,21.14
2017-05-01T10:09:47.430Z,20.65
2017-05-01T10:10:47.461Z,21.51
2017-05-01T10:11:47.794Z,21.51
2017-05-01T10:12:47.578Z,21.33
2017-05-01T10:13:47.558Z,21.42
2017-05-01T10:14:47.582Z,22
2017-05-01T10:15:47.625Z,21.89
2017-05-01T10:16:47.660Z,22.38
2017-05-01T10:17:47.685Z,22.75
2017-05-01T10:18:47.707Z,23.23
2017-05-01T10:19:47.739Z,23.23
2017-05-01T10:20:48.081Z,23.52
2017-05-01T10:21:47.798Z,23.8
2017-05-01T10:22:48.135Z,23.5
2017-05-01T10:23:47.874Z,23.7
2017-05-01T10:24:47.894Z,24.18
2017-05-01T10:25:48.223Z,24.46
2017-05-01T10:26:48.253Z,24.66
2017-05-01T10:27:47.978Z,25.03
2017-05-01T10:28:48.008Z,25.32
2017-05-01T10:29:48.343Z,25.42
2017-05-01T10:30:48.066Z,25.61
2017-05-01T10:31:48.466Z,25.99
2017-05-01T10:32:48.433Z,25.7
2017-05-01T10:33:48.275Z,26.08
2017-05-01T10:34:48.194Z,25.7
2017-05-01T10:35:48.517Z,26.28
2017-05-01T10:36:48.248Z,26.56
2017-05-01T10:37:48.291Z,26.65
2017-05-01T10:38:48.610Z,27.03
2017-05-01T10:39:48.609Z,27.03
2017-05-01T10:40:48.365Z,27.13
2017-05-01T10:41:48.706Z,27.33
2017-05-01T10:42:48.426Z,27.42
2017-05-01T10:43:48.459Z,27.42
2017-05-01T10:44:48.791Z,27.4
2017-05-01T10:45:48.549Z,27.8
2017-05-01T10:46:48.898Z,27.89
2017-05-01T10:47:48.577Z,27.89
2017-05-01T10:48:48.600Z,28.18
2017-05-01T10:49:48.631Z,28.28
2017-05-01T10:50:48.660Z,28.18
2017-05-01T10:51:48.686Z,28.28
2017-05-01T10:52:49.027Z,28.28
2017-05-01T10:53:48.743Z,28.47
2017-05-01T10:54:49.072Z,28.56
2017-05-01T10:55:48.804Z,28.56
2017-05-01T10:56:48.883Z,28.47
2017-05-01T10:57:48.924Z,28.47
2017-05-01T10:58:49.202Z,28.56
2017-05-01T10:59:49.228Z,28.76
2017-05-01T11:00:48.950Z,28.56
2017-05-01T11:01:49.294Z,28.66
2017-05-01T11:02:49.002Z,28.66
2017-05-01T11:03:49.044Z,28.95
2017-05-01T11:04:49.117Z,28.95
2017-05-01T11:05:49.093Z,28.85
2017-05-01T11:06:49.417Z,28.76
2017-05-01T11:07:49.150Z,29.34
2017-05-01T11:08:49.175Z,29.34
2017-05-01T11:09:49.256Z,29.63
2017-05-01T11:10:49.230Z,29.34
2017-05-01T11:11:49.565Z,29.24
2017-05-01T11:12:49.317Z,29.24
2017-05-01T11:13:49.318Z,29.43
2017-05-01T11:14:49.348Z,29.53
2017-05-01T11:15:49.684Z,29.72
2017-05-01T11:16:49.705Z,29.52
2017-05-01T11:17:49.434Z,29.63
2017-05-01T11:18:49.481Z,29.53
2017-05-01T11:19:49.495Z,29.42
2017-05-01T11:20:49.536Z,29.63
2017-05-01T11:21:49.618Z,29.9
2017-05-01T11:22:49.929Z,30.19
2017-05-01T11:23:49.907Z,30.1
2017-05-01T11:24:49.654Z,30.1
2017-05-01T11:25:49.668Z,30.1
2017-05-01T11:26:49.704Z,30.1
2017-05-01T11:27:50.032Z,30.29
2017-05-01T11:28:50.054Z,30.29
2017-05-01T11:29:50.082Z,30.19
2017-05-01T11:30:49.802Z,30.29
2017-05-01T11:31:49.842Z,30.19
2017-05-01T11:32:49.863Z,30.19
2017-05-01T11:33:49.897Z,30.19
2017-05-01T11:34:49.923Z,30.38
2017-05-01T11:35:50.251Z,30.29
2017-05-01T11:36:49.982Z,30.29
2017-05-01T11:37:50.054Z,30.58
2017-05-01T11:38:50.333Z,30.67
2017-05-01T11:39:50.360Z,30.77
2017-05-01T11:40:50.098Z,30.96
2017-05-01T11:41:50.115Z,31.06
2017-05-01T11:42:50.147Z,30.87
2017-05-01T11:43:50.484Z,31.06
2017-05-01T11:44:50.603Z,30.96
2017-05-01T11:45:50.383Z,31.15
2017-05-01T11:46:50.409Z,31.15
2017-05-01T11:47:50.426Z,30.96
2017-05-01T11:48:50.357Z,30.66
2017-05-01T11:49:50.664Z,31.24
2017-05-01T11:50:50.676Z,31.24
2017-05-01T11:51:50.406Z,31.14
2017-05-01T11:52:50.923Z,30.94
2017-05-01T11:53:52.483Z,31.14
